Time;durP1;ratioP1;P1;durP2;ratioP2;P2;SDS_P1;SDS_P2;PMS_P1;PMS_P2;Temp;Humidity;BMP_temperature;BMP_pressure;BME280_temperature;BME280_humidity;BME280_pressure;Samples;Min_cycle;Max_cycle;Signal;HPM_P1;HPM_P2
2021/04/29 00:04:29;;;;;;;15.95;10.75;;;12.10;74.80;;;;;;6230073;23;20163;-84
2021/04/29 00:07:02;;;;;;;14.52;9.57;;;12.00;74.90;;;;;;6228623;23;20145;-85
2021/04/29 00:09:42;;;;;;;16.05;10.75;;;12.10;74.60;;;;;;6201877;23;20212;-85
2021/04/29 00:12:11;;;;;;;11.82;9.85;;;12.10;74.80;;;;;;6202102;23;20175;-84
2021/04/29 00:14:48;;;;;;;14.75;11.18;;;12.00;75.30;;;;;;6229425;23;20153;-84
2021/04/29 00:17:27;;;;;;;18.63;10.32;;;11.90;75.70;;;;;;6201259;23;20168;-85
2021/04/29 00:19:56;;;;;;;10.55;9.27;;;11.90;76.10;;;;;;6202106;23;20172;-83
2021/04/29 00:22:47;;;;;;;18.42;11.00;;;11.90;77.00;;;;;;6227765;23;20181;-84
2021/04/29 00:25:18;;;;;;;14.60;9.63;;;11.90;76.30;;;;;;6228293;23;20148;-84
2021/04/29 00:27:49;;;;;;;13.93;9.15;;;11.90;75.90;;;;;;6229192;23;20172;-85
2021/04/29 00:30:24;;;;;;;17.75;10.48;;;11.90;76.20;;;;;;6229378;23;20184;-85
2021/04/29 00:32:50;;;;;;;15.25;10.32;;;11.90;76.20;;;;;;6230895;23;20125;-86
2021/04/29 00:35:48;;;;;;;13.20;9.40;;;11.80;76.30;;;;;;6226530;23;20228;-85
2021/04/29 00:43:11;;;;;;;30.80;9.85;;;11.70;77.60;;;;;;6241549;23;20195;-86
2021/04/29 00:45:53;;;;;;;;;;;;;;;;;;;;;
2021/04/29 00:48:20;;;;;;;16.30;9.27;;;12.00;77.30;;;;;;6222633;23;20179;-86
2021/04/29 00:50:54;;;;;;;15.18;10.02;;;12.00;76.90;;;;;;6226648;23;20196;-84
2021/04/29 00:53:42;;;;;;;16.20;10.55;;;12.10;78.00;;;;;;6199557;23;20183;-85
2021/04/29 00:56:28;;;;;;;14.18;10.52;;;12.00;76.50;;;;;;6200418;23;20173;-85
2021/04/29 00:58:54;;;;;;;19.10;9.65;;;11.80;78.20;;;;;;6223929;23;20153;-84
2021/04/29 01:01:21;;;;;;;15.17;10.60;;;11.50;79.60;;;;;;6225317;23;20230;-86
2021/04/29 01:04:18;;;;;;;15.40;10.70;;;11.50;80.70;;;;;;6201333;23;20380;-84
2021/04/29 01:06:54;;;;;;;15.73;10.88;;;11.30;81.90;;;;;;6234519;23;20164;-85
2021/04/29 01:09:40;;;;;;;;;;;;;;;;;;;;;
2021/04/29 01:12:46;;;;;;;14.80;10.38;;;11.30;83.10;;;;;;6226195;23;20164;-84
2021/04/29 01:15:13;;;;;;;16.60;9.90;;;11.20;84.20;;;;;;6196652;23;20160;-83
2021/04/29 01:17:43;;;;;;;16.00;9.95;;;11.20;85.40;;;;;;6198771;23;20159;-82
2021/04/29 01:20:29;;;;;;;17.08;9.50;;;11.20;85.50;;;;;;6199908;23;20180;-84
2021/04/29 01:23:06;;;;;;;15.93;10.05;;;11.50;83.90;;;;;;6200898;23;20207;-85
2021/04/29 01:25:34;;;;;;;17.08;10.80;;;11.60;82.90;;;;;;6225890;23;20156;-83
2021/04/29 01:28:00;;;;;;;19.50;10.60;;;11.70;82.90;;;;;;6228490;23;20141;-85
2021/04/29 01:30:27;;;;;;;15.02;10.07;;;11.80;82.10;;;;;;6179459;23;20176;-86
2021/04/29 01:32:54;;;;;;;12.70;8.85;;;11.90;82.20;;;;;;6230793;23;20152;-83
2021/04/29 01:35:21;;;;;;;14.95;9.70;;;12.00;81.10;;;;;;6203265;23;20156;-85
2021/04/29 01:37:51;;;;;;;14.93;10.65;;;12.00;81.20;;;;;;6228977;23;20213;-83
2021/04/29 01:40:17;;;;;;;17.42;10.00;;;12.00;81.20;;;;;;6206810;23;20172;-84
2021/04/29 01:42:43;;;;;;;21.23;11.43;;;12.00;80.70;;;;;;6208395;23;20176;-84
2021/04/29 01:45:10;;;;;;;10.90;8.40;;;12.00;81.40;;;;;;6233857;23;20879;-86
2021/04/29 01:47:37;;;;;;;14.25;10.05;;;12.10;81.20;;;;;;6204749;23;20441;-84
2021/04/29 01:50:10;;;;;;;17.20;10.30;;;12.10;81.60;;;;;;6204481;23;20184;-86
2021/04/29 01:52:42;;;;;;;17.48;10.43;;;12.10;81.10;;;;;;6205924;23;20158;-84
2021/04/29 01:55:11;;;;;;;18.38;9.90;;;12.10;80.50;;;;;;6231865;23;20165;-84
2021/04/29 01:57:37;;;;;;;13.23;9.10;;;12.10;80.60;;;;;;6236037;23;20160;-83
2021/04/29 02:00:08;;;;;;;14.52;9.00;;;12.00;80.90;;;;;;6204196;23;20188;-84
2021/04/29 02:02:33;;;;;;;19.48;10.25;;;11.90;81.20;;;;;;6202141;23;20191;-85
2021/04/29 02:04:59;;;;;;;12.63;9.43;;;11.90;81.20;;;;;;6231560;23;20566;-84
2021/04/29 02:07:31;;;;;;;16.50;10.40;;;12.00;81.80;;;;;;6230629;23;20166;-84
2021/04/29 02:09:56;;;;;;;15.02;9.43;;;12.00;81.80;;;;;;6206094;23;20176;-84
2021/04/29 02:12:25;;;;;;;12.93;9.80;;;12.10;81.10;;;;;;6230505;23;20153;-84
2021/04/29 02:14:55;;;;;;;15.15;10.52;;;12.00;80.70;;;;;;6207040;23;20148;-84
2021/04/29 02:17:46;;;;;;;16.40;10.65;;;12.00;81.50;;;;;;6230967;23;20133;-84
2021/04/29 02:20:14;;;;;;;13.73;9.85;;;12.00;79.70;;;;;;6236084;23;20160;-85
2021/04/29 02:22:41;;;;;;;15.75;9.88;;;11.80;81.10;;;;;;6213780;23;20160;-83
2021/04/29 02:25:09;;;;;;;25.45;10.38;;;11.90;81.30;;;;;;6210642;23;20153;-85
2021/04/29 02:27:38;;;;;;;14.98;9.93;;;11.80;80.70;;;;;;6209590;23;20149;-84
2021/04/29 02:30:15;;;;;;;14.15;10.20;;;11.90;80.30;;;;;;6233628;23;20161;-85
2021/04/29 02:32:45;;;;;;;14.70;9.80;;;11.90;80.00;;;;;;6204056;23;20183;-84
2021/04/29 02:35:14;;;;;;;15.35;10.52;;;11.90;81.40;;;;;;6232653;23;20148;-83
2021/04/29 02:37:44;;;;;;;12.35;10.38;;;11.80;80.40;;;;;;6198975;23;20176;-84
2021/04/29 02:40:13;;;;;;;15.38;9.93;;;11.80;80.50;;;;;;6226315;23;20191;-85
2021/04/29 02:42:39;;;;;;;15.32;10.07;;;11.70;80.90;;;;;;6200077;23;20283;-85
2021/04/29 02:45:10;;;;;;;14.90;10.10;;;11.80;81.10;;;;;;6225891;23;20141;-85
2021/04/29 02:47:50;;;;;;;16.33;9.13;;;11.80;80.80;;;;;;6228023;23;20203;-85
2021/04/29 02:50:18;;;;;;;18.60;11.30;;;11.90;81.60;;;;;;6203465;23;20274;-84
2021/04/29 02:52:45;;;;;;;14.98;10.15;;;11.60;81.10;;;;;;6206202;23;20152;-85
2021/04/29 02:55:12;;;;;;;14.32;10.13;;;11.50;82.40;;;;;;6202316;23;20153;-83
2021/04/29 02:57:39;;;;;;;13.77;10.88;;;11.40;83.50;;;;;;6228460;23;20528;-85
2021/04/29 03:00:10;;;;;;;15.82;9.88;;;11.40;83.70;;;;;;6199926;23;20177;-85
2021/04/29 03:02:59;;;;;;;15.20;10.07;;;11.50;84.10;;;;;;6223086;23;20180;-84
2021/04/29 03:05:25;;;;;;;15.35;9.55;;;11.40;84.00;;;;;;6197441;23;20172;-84
2021/04/29 03:07:52;;;;;;;18.27;10.60;;;11.50;83.90;;;;;;6198845;23;20156;-83
2021/04/29 03:10:21;;;;;;;15.38;10.68;;;11.60;83.50;;;;;;6197853;23;20391;-83
2021/04/29 03:12:54;;;;;;;15.55;10.13;;;11.70;83.20;;;;;;6199027;23;20180;-84
2021/04/29 03:15:22;;;;;;;16.08;8.75;;;11.70;83.50;;;;;;6226793;23;20141;-85
2021/04/29 03:17:47;;;;;;;21.58;11.10;;;11.50;84.40;;;;;;6230157;23;20149;-85
2021/04/29 03:20:13;;;;;;;14.07;10.63;;;11.30;85.20;;;;;;6232446;23;20224;-85
2021/04/29 03:23:17;;;;;;;18.10;10.70;;;11.20;87.30;;;;;;6199641;23;20183;-84
2021/04/29 03:25:44;;;;;;;15.75;9.85;;;11.30;87.40;;;;;;6198154;23;20156;-85
2021/04/29 03:28:09;;;;;;;19.08;11.00;;;11.50;86.80;;;;;;6226553;23;20156;-84
2021/04/29 03:30:37;;;;;;;14.93;10.30;;;11.50;86.40;;;;;;6226938;23;20167;-84
2021/04/29 03:33:06;;;;;;;13.82;10.05;;;11.50;87.30;;;;;;6233131;23;20156;-85
2021/04/29 03:35:32;;;;;;;15.93;10.98;;;11.60;87.90;;;;;;6215247;23;20163;-86
2021/04/29 03:37:57;;;;;;;18.05;10.70;;;11.20;88.40;;;;;;6240545;23;20160;-85
2021/04/29 03:40:23;;;;;;;16.43;10.93;;;11.30;90.00;;;;;;6187574;23;20172;-85
2021/04/29 03:42:49;;;;;;;11.93;9.70;;;11.40;89.70;;;;;;6212274;23;20348;-85
2021/04/29 03:45:14;;;;;;;20.13;11.33;;;11.60;88.50;;;;;;6241154;23;20183;-84
2021/04/29 03:47:41;;;;;;;16.50;10.37;;;11.60;88.20;;;;;;6190261;23;20161;-84
2021/04/29 03:50:07;;;;;;;13.27;10.00;;;11.20;90.30;;;;;;6214765;23;20181;-84
2021/04/29 03:52:33;;;;;;;16.20;10.73;;;10.90;91.80;;;;;;6214253;23;20156;-84
2021/04/29 03:54:59;;;;;;;14.48;9.40;;;10.80;93.00;;;;;;6236512;23;20153;-85
2021/04/29 03:57:24;;;;;;;12.90;9.23;;;10.90;93.80;;;;;;6219165;23;20159;-86
2021/04/29 03:59:50;;;;;;;23.67;10.60;;;11.00;93.70;;;;;;6168243;23;20160;-85
2021/04/29 04:02:16;;;;;;;18.87;11.30;;;10.80;95.20;;;;;;6193196;23;20244;-84
2021/04/29 04:04:42;;;;;;;18.95;11.10;;;10.80;95.30;;;;;;6173411;23;20183;-85
2021/04/29 04:07:07;;;;;;;20.93;11.27;;;10.80;95.90;;;;;;6195492;23;20153;-85
2021/04/29 04:09:35;;;;;;;23.43;11.67;;;10.90;96.60;;;;;;6221417;23;20228;-86
2021/04/29 04:12:08;;;;;;;17.10;11.23;;;11.10;96.40;;;;;;6221052;23;20141;-86
2021/04/29 04:14:39;;;;;;;15.38;11.27;;;11.30;95.80;;;;;;6221712;23;20126;-86
2021/04/29 04:17:05;;;;;;;18.23;11.07;;;11.00;95.70;;;;;;6194426;23;20231;-84
2021/04/29 04:19:39;;;;;;;22.50;13.20;;;10.80;97.10;;;;;;6198022;23;20149;-86
2021/04/29 04:22:12;;;;;;;18.17;10.57;;;10.60;98.00;;;;;;6197978;23;20614;-86
2021/04/29 04:24:57;;;;;;;17.85;11.45;;;10.50;99.80;;;;;;6192107;23;20667;-85
2021/04/29 04:27:33;;;;;;;21.50;13.02;;;10.60;99.90;;;;;;6194353;23;20145;-85
2021/04/29 04:29:59;;;;;;;19.92;10.10;;;10.80;99.90;;;;;;6193842;23;20172;-85
2021/04/29 04:32:27;;;;;;;25.55;12.00;;;11.10;99.90;;;;;;6194884;23;20161;-86
2021/04/29 04:34:55;;;;;;;18.60;11.55;;;11.10;99.90;;;;;;6220373;23;20147;-84
2021/04/29 04:37:21;;;;;;;15.98;9.65;;;10.90;99.90;;;;;;6193048;23;20152;-86
2021/04/29 04:39:47;;;;;;;14.80;11.93;;;10.90;99.90;;;;;;6218008;23;20152;-85
2021/04/29 04:42:12;;;;;;;17.70;10.90;;;10.90;99.90;;;;;;6221497;23;20180;-85
2021/04/29 04:44:38;;;;;;;17.33;11.90;;;10.90;99.90;;;;;;6171004;23;20415;-86
2021/04/29 04:47:11;;;;;;;21.23;12.07;;;10.90;99.90;;;;;;6197259;23;20149;-86
2021/04/29 04:49:49;;;;;;;20.88;12.68;;;10.90;99.90;;;;;;6220141;23;20159;-86
2021/04/29 04:52:17;;;;;;;19.30;12.63;;;11.10;99.90;;;;;;6221199;23;20152;-86
2021/04/29 04:54:51;;;;;;;21.13;11.38;;;11.20;99.90;;;;;;6222787;23;20145;-86
2021/04/29 04:57:58;;;;;;;16.88;11.00;;;11.40;99.90;;;;;;6195222;23;20153;-86
2021/04/29 05:00:39;;;;;;;28.08;11.90;;;11.20;99.90;;;;;;6220649;23;20203;-85
2021/04/29 05:03:05;;;;;;;13.70;10.65;;;11.00;99.90;;;;;;6222354;23;20255;-86
2021/04/29 05:06:04;;;;;;;14.67;10.47;;;10.90;99.90;;;;;;6195216;23;20141;-86
2021/04/29 05:08:32;;;;;;;15.07;10.25;;;11.00;99.90;;;;;;6199503;23;20141;-86
2021/04/29 05:11:06;;;;;;;19.27;12.25;;;11.20;99.90;;;;;;6199982;23;20200;-86
2021/04/29 05:13:32;;;;;;;19.23;11.15;;;11.40;99.90;;;;;;6191899;23;20235;-86
2021/04/29 05:15:57;;;;;;;20.37;12.20;;;11.40;99.90;;;;;;6193897;23;20171;-85
2021/04/29 05:18:26;;;;;;;18.90;12.23;;;11.60;99.90;;;;;;6221793;23;20168;-86
2021/04/29 05:20:54;;;;;;;26.38;12.20;;;11.70;99.90;;;;;;6221128;23;20222;-86
2021/04/29 05:23:20;;;;;;;19.92;12.20;;;11.80;99.90;;;;;;6222119;23;20238;-86
2021/04/29 05:25:49;;;;;;;18.07;12.17;;;11.80;99.90;;;;;;6219284;23;20168;-87
2021/04/29 05:28:14;;;;;;;21.48;12.00;;;11.70;99.90;;;;;;6194263;23;20160;-85
2021/04/29 05:30:40;;;;;;;16.73;11.00;;;11.70;99.90;;;;;;6195975;23;20232;-86
2021/04/29 05:33:08;;;;;;;17.03;12.07;;;11.70;99.90;;;;;;6194077;23;20164;-85
2021/04/29 05:35:43;;;;;;;21.25;11.95;;;11.40;99.90;;;;;;6220604;23;20583;-86
2021/04/29 05:38:18;;;;;;;22.73;11.75;;;11.60;99.90;;;;;;6195309;23;20224;-85
2021/04/29 05:40:48;;;;;;;21.50;12.10;;;11.70;99.90;;;;;;6222609;23;20166;-85
2021/04/29 05:43:14;;;;;;;15.77;11.00;;;11.80;99.90;;;;;;6196119;23;20184;-84
2021/04/29 05:45:41;;;;;;;19.17;12.17;;;11.80;99.90;;;;;;6221428;23;20153;-85
2021/04/29 05:48:09;;;;;;;18.30;11.70;;;11.90;99.90;;;;;;6196310;23;20153;-86
2021/04/29 05:50:35;;;;;;;18.63;13.07;;;12.00;99.90;;;;;;6219991;23;20211;-84
2021/04/29 05:53:01;;;;;;;23.80;12.65;;;12.00;99.90;;;;;;6193449;23;20633;-85
2021/04/29 05:56:05;;;;;;;14.77;10.93;;;12.00;99.90;;;;;;6194494;23;20156;-87
2021/04/29 05:58:31;;;;;;;22.30;12.35;;;11.90;99.90;;;;;;6218740;23;20152;-83
2021/04/29 06:01:02;;;;;;;17.10;13.10;;;12.10;99.90;;;;;;6170284;23;20183;-84
2021/04/29 06:03:27;;;;;;;16.40;12.43;;;12.10;99.90;;;;;;6221806;23;20352;-82
2021/04/29 06:05:53;;;;;;;23.77;13.93;;;11.70;99.90;;;;;;6222232;23;20452;-82
2021/04/29 06:08:19;;;;;;;19.60;12.97;;;11.20;99.90;;;;;;6222279;23;20183;-83
2021/04/29 06:10:44;;;;;;;24.37;14.73;;;11.00;99.90;;;;;;6222105;23;20184;-83
2021/04/29 06:13:10;;;;;;;18.97;13.93;;;11.10;99.90;;;;;;6195269;23;20149;-82
2021/04/29 06:15:36;;;;;;;18.27;13.73;;;11.00;99.90;;;;;;6195849;23;20161;-83
2021/04/29 06:18:01;;;;;;;19.70;13.87;;;11.20;99.90;;;;;;6195783;23;20156;-81
2021/04/29 06:20:27;;;;;;;21.77;14.73;;;11.50;99.90;;;;;;6221652;23;20407;-82
2021/04/29 06:22:53;;;;;;;22.17;13.40;;;11.50;99.90;;;;;;6218734;23;20650;-83
2021/04/29 06:25:23;;;;;;;40.88;17.65;;;11.40;99.90;;;;;;6221075;23;20153;-85
2021/04/29 06:34:38;;;;;;;26.88;14.32;;;11.70;99.90;;;;;;6231438;22;20732;-84
2021/04/29 06:45:58;;;;;;;33.13;14.82;;;12.00;99.90;;;;;;6188932;23;20169;-84
2021/04/29 06:48:42;;;;;;;22.40;13.57;;;12.00;99.90;;;;;;6189406;23;20208;-85
2021/04/29 06:51:08;;;;;;;18.33;12.25;;;12.00;99.90;;;;;;6175134;23;20162;-82
2021/04/29 06:53:35;;;;;;;19.70;11.43;;;12.10;99.90;;;;;;6164951;23;20151;-84
2021/04/29 06:56:35;;;;;;;19.13;12.35;;;12.10;99.90;;;;;;6161457;23;20400;-84
2021/04/29 06:59:48;;;;;;;15.68;9.93;;;12.10;99.90;;;;;;6161778;23;20150;-84
2021/04/29 07:06:55;;;;;;;;;;;;;;;;;;;;;
2021/04/29 07:09:54;;;;;;;18.40;11.25;;;12.20;99.90;;;;;;6043297;23;20508;-87
2021/04/29 07:13:04;;;;;;;11.88;9.73;;;12.10;99.90;;;;;;6011258;23;20607;-87
2021/04/29 07:15:49;;;;;;;13.70;9.45;;;12.00;99.90;;;;;;6023195;23;20226;-87
2021/04/29 07:18:25;;;;;;;21.73;11.30;;;11.90;99.90;;;;;;6165479;23;20154;-86
2021/04/29 07:20:55;;;;;;;17.30;10.68;;;11.90;99.90;;;;;;6188535;23;20184;-87
2021/04/29 07:23:23;;;;;;;12.73;9.93;;;11.80;99.90;;;;;;6162188;23;20217;-86
2021/04/29 07:29:32;;;;;;;13.77;9.73;;;11.70;99.90;;;;;;5986412;24;20181;-83
2021/04/29 07:35:04;;;;;;;12.60;10.65;;;11.80;99.90;;;;;;6162139;23;20138;-83
2021/04/29 07:37:35;;;;;;;23.05;9.82;;;11.80;99.90;;;;;;6164479;23;20580;-84
2021/04/29 07:40:01;;;;;;;12.27;9.60;;;11.80;99.90;;;;;;6161560;23;20211;-83
2021/04/29 07:45:55;;;;;;;13.95;9.75;;;11.80;99.90;;;;;;6163328;23;20165;-83
2021/04/29 07:48:40;;;;;;;13.70;8.90;;;11.90;99.90;;;;;;6166729;23;20142;-84
2021/04/29 07:51:08;;;;;;;18.02;10.98;;;11.80;99.90;;;;;;6170709;23;20170;-85
2021/04/29 07:54:03;;;;;;;11.02;9.60;;;11.90;99.90;;;;;;6174100;23;20147;-84
2021/04/29 07:56:31;;;;;;;18.45;10.48;;;11.80;99.90;;;;;;6177553;23;20150;-85
2021/04/29 07:58:57;;;;;;;18.00;10.55;;;11.70;99.90;;;;;;6167488;23;20154;-83
2021/04/29 08:02:18;;;;;;;22.03;12.40;;;11.80;99.90;;;;;;6158744;23;20209;-85
2021/04/29 08:04:52;;;;;;;18.35;11.55;;;11.70;99.90;;;;;;6154079;23;20396;-83
2021/04/29 08:07:17;;;;;;;14.55;10.35;;;11.60;99.90;;;;;;6160607;23;20127;-83
2021/04/29 08:09:47;;;;;;;14.67;10.83;;;11.70;99.90;;;;;;6159969;23;20161;-85
2021/04/29 08:12:13;;;;;;;14.57;10.93;;;11.60;99.90;;;;;;6158805;23;20233;-83
2021/04/29 08:14:38;;;;;;;27.10;10.67;;;11.50;99.90;;;;;;6157687;23;20455;-84
2021/04/29 08:17:04;;;;;;;14.73;9.97;;;11.50;99.90;;;;;;6161714;23;20157;-84
2021/04/29 08:19:30;;;;;;;17.03;10.97;;;11.50;99.90;;;;;;6161610;23;20157;-84
2021/04/29 08:21:56;;;;;;;12.07;9.60;;;11.50;99.90;;;;;;6168672;23;20253;-84
2021/04/29 08:24:21;;;;;;;15.00;10.00;;;11.60;99.90;;;;;;6166761;23;20378;-84
2021/04/29 08:26:47;;;;;;;15.43;10.50;;;11.50;99.90;;;;;;6164340;23;20177;-81
2021/04/29 08:29:12;;;;;;;12.63;10.57;;;11.50;99.90;;;;;;6161426;23;20614;-82
2021/04/29 08:31:39;;;;;;;12.10;9.97;;;11.50;99.90;;;;;;6161207;23;20500;-81
2021/04/29 08:34:04;;;;;;;16.80;11.57;;;11.60;99.90;;;;;;6161860;23;20157;-81
2021/04/29 08:36:30;;;;;;;15.37;9.53;;;11.50;99.90;;;;;;6161348;23;20154;-81
2021/04/29 08:38:57;;;;;;;14.93;11.10;;;11.60;99.90;;;;;;6160347;23;20160;-83
2021/04/29 08:41:23;;;;;;;15.32;11.13;;;11.60;99.90;;;;;;6160013;23;20568;-81
2021/04/29 08:43:49;;;;;;;15.27;10.20;;;11.60;99.90;;;;;;6135340;23;20245;-81
2021/04/29 08:46:15;;;;;;;12.60;10.60;;;11.60;99.90;;;;;;6162085;23;20150;-81
2021/04/29 08:48:53;;;;;;;17.33;10.47;;;11.60;99.90;;;;;;6161592;23;20153;-82
2021/04/29 08:51:19;;;;;;;16.08;11.05;;;11.70;99.90;;;;;;6159208;23;20424;-81
2021/04/29 08:53:46;;;;;;;17.75;11.98;;;11.70;99.90;;;;;;6163192;23;20159;-82
2021/04/29 08:56:12;;;;;;;18.90;10.50;;;11.70;99.90;;;;;;6143232;23;20158;-81
2021/04/29 08:58:37;;;;;;;16.58;11.93;;;11.80;99.90;;;;;;6171361;23;20154;-82
2021/04/29 09:01:04;;;;;;;17.00;11.13;;;11.80;99.90;;;;;;6140317;23;20178;-83
2021/04/29 09:03:32;;;;;;;14.32;9.80;;;11.80;99.90;;;;;;6141615;23;20464;-82
2021/04/29 09:05:58;;;;;;;18.10;9.40;;;11.80;99.90;;;;;;6142583;23;20233;-83
2021/04/29 09:08:30;;;;;;;14.60;10.73;;;11.90;99.90;;;;;;6166182;23;20182;-81
2021/04/29 09:11:09;;;;;;;14.75;10.35;;;12.00;99.90;;;;;;6165611;23;20167;-82
2021/04/29 09:13:35;;;;;;;16.52;10.80;;;12.10;99.90;;;;;;6167698;23;20150;-83
2021/04/29 09:16:15;;;;;;;15.82;10.65;;;12.20;99.90;;;;;;6168794;23;20150;-82
2021/04/29 09:18:41;;;;;;;16.58;10.30;;;12.20;99.90;;;;;;6167557;23;20234;-82
2021/04/29 09:21:14;;;;;;;18.13;11.55;;;12.40;99.90;;;;;;6165103;23;20190;-83
2021/04/29 09:23:45;;;;;;;16.55;11.52;;;12.60;99.90;;;;;;6168157;23;20146;-83
2021/04/29 09:26:16;;;;;;;15.98;11.40;;;12.60;99.90;;;;;;6167344;23;20229;-83
2021/04/29 09:28:50;;;;;;;16.75;11.52;;;12.80;99.90;;;;;;6170462;23;20156;-82
2021/04/29 09:31:18;;;;;;;22.35;12.00;;;12.90;99.90;;;;;;6170391;23;20173;-82
2021/04/29 09:33:47;;;;;;;17.98;12.60;;;13.10;99.90;;;;;;6168079;23;20151;-83
2021/04/29 09:36:38;;;;;;;21.45;13.13;;;13.30;99.90;;;;;;6140477;23;20182;-83
2021/04/29 09:39:15;;;;;;;20.23;12.70;;;13.30;99.90;;;;;;6145009;23;20492;-82
2021/04/29 09:41:52;;;;;;;16.90;12.38;;;13.40;99.90;;;;;;6164002;23;20178;-82
2021/04/29 09:44:24;;;;;;;18.83;13.10;;;13.60;99.90;;;;;;6167028;23;20196;-82
2021/04/29 09:46:51;;;;;;;18.73;12.43;;;13.80;99.90;;;;;;6169313;23;20153;-82
2021/04/29 09:49:25;;;;;;;18.75;12.65;;;13.90;99.90;;;;;;6168059;23;20215;-82
2021/04/29 09:51:54;;;;;;;21.88;12.55;;;14.00;99.90;;;;;;6165072;23;20174;-82
2021/04/29 09:54:38;;;;;;;18.77;12.68;;;14.20;99.90;;;;;;6163306;23;20158;-83
2021/04/29 09:57:08;;;;;;;17.90;12.18;;;14.40;99.90;;;;;;6164977;23;20146;-83
2021/04/29 09:59:47;;;;;;;25.85;14.20;;;14.60;99.90;;;;;;6168139;23;20163;-83
2021/04/29 10:02:16;;;;;;;16.23;11.85;;;14.80;99.90;;;;;;6166343;23;20649;-83
2021/04/29 10:04:43;;;;;;;15.60;12.30;;;14.80;99.90;;;;;;6164998;23;20150;-82
2021/04/29 10:07:09;;;;;;;18.73;13.40;;;14.80;99.90;;;;;;6164779;23;20379;-82
2021/04/29 10:09:36;;;;;;;17.70;12.93;;;14.80;99.90;;;;;;6167485;23;20154;-83
2021/04/29 10:12:12;;;;;;;15.57;12.37;;;14.80;99.90;;;;;;6169411;23;20375;-83
2021/04/29 10:14:43;;;;;;;18.73;13.27;;;14.60;99.90;;;;;;6170862;23;20667;-83
2021/04/29 10:17:11;;;;;;;21.23;13.03;;;14.60;99.90;;;;;;6172359;23;20152;-83
2021/04/29 10:19:42;;;;;;;23.35;13.77;;;14.40;99.90;;;;;;6172951;23;20470;-83
2021/04/29 10:22:09;;;;;;;18.67;14.55;;;14.30;99.90;;;;;;6172343;23;20195;-84
2021/04/29 10:24:36;;;;;;;20.45;14.90;;;14.20;99.90;;;;;;6196073;23;20156;-83
2021/04/29 10:27:04;;;;;;;23.08;14.38;;;14.20;99.90;;;;;;6172711;23;20202;-83
2021/04/29 10:29:31;;;;;;;17.75;13.75;;;14.10;99.90;;;;;;6171765;23;20179;-82
2021/04/29 10:32:00;;;;;;;18.83;14.07;;;14.10;99.90;;;;;;6172847;23;20235;-83
2021/04/29 10:34:59;;;;;;;18.02;14.30;;;14.10;99.90;;;;;;6171838;23;20221;-82
2021/04/29 10:37:27;;;;;;;21.00;15.38;;;14.10;99.90;;;;;;6170589;23;20162;-83
2021/04/29 10:39:58;;;;;;;20.67;14.57;;;14.10;99.90;;;;;;6166960;23;20174;-82
2021/04/29 10:42:29;;;;;;;19.48;14.40;;;14.00;99.90;;;;;;6170473;23;20258;-86
2021/04/29 10:45:09;;;;;;;21.15;15.38;;;14.10;99.90;;;;;;6176705;23;20158;-87
2021/04/29 10:47:42;;;;;;;26.17;16.50;;;14.00;99.90;;;;;;6171718;23;20157;-87
2021/04/29 10:50:12;;;;;;;22.30;16.55;;;13.90;99.90;;;;;;6171821;23;20166;-86
2021/04/29 10:52:57;;;;;;;22.85;15.98;;;13.80;99.90;;;;;;6175338;23;20154;-86
2021/04/29 10:55:33;;;;;;;24.70;16.00;;;13.80;99.90;;;;;;6173961;23;20158;-86
2021/04/29 10:58:20;;;;;;;28.63;17.73;;;13.80;99.90;;;;;;6195207;23;20154;-86
2021/04/29 11:01:03;;;;;;;26.55;17.48;;;13.90;99.90;;;;;;6169865;23;20170;-85
2021/04/29 11:03:38;;;;;;;27.27;17.52;;;14.20;99.90;;;;;;6167572;23;20154;-86
2021/04/29 11:06:48;;;;;;;28.08;16.83;;;14.50;99.90;;;;;;6169924;23;20130;-85
2021/04/29 11:20:44;;;;;;;28.67;18.90;;;15.00;99.90;;;;;;6063406;23;20164;-86
2021/04/29 11:23:40;;;;;;;28.17;17.90;;;15.00;99.90;;;;;;6055021;23;20180;-85
2021/04/29 11:33:31;;;;;;;27.42;20.85;;;14.80;99.90;;;;;;6076114;23;20592;-85
2021/04/29 11:35:57;;;;;;;27.13;18.17;;;14.80;99.90;;;;;;6147826;23;20150;-85
2021/04/29 11:38:30;;;;;;;35.90;20.43;;;14.90;99.90;;;;;;6160952;23;20169;-84
2021/04/29 11:40:58;;;;;;;30.70;22.15;;;14.80;99.90;;;;;;6167329;23;20171;-85
2021/04/29 11:43:45;;;;;;;30.63;19.40;;;14.80;99.90;;;;;;6165773;23;20183;-85
2021/04/29 11:46:48;;;;;;;34.80;17.98;;;15.00;99.90;;;;;;6165682;23;20167;-86
2021/04/29 11:53:54;;;;;;;19.95;14.85;;;15.30;99.90;;;;;;5988937;23;20196;-86
2021/04/29 11:56:22;;;;;;;21.83;14.90;;;15.10;99.90;;;;;;6104540;23;20199;-85
2021/04/29 11:59:08;;;;;;;22.70;15.00;;;15.10;99.90;;;;;;6186874;23;20157;-84
2021/04/29 12:02:41;;;;;;;19.80;13.90;;;15.10;99.90;;;;;;6165427;23;20509;-85
2021/04/29 12:05:34;;;;;;;24.23;16.50;;;15.10;99.90;;;;;;6163828;23;20157;-85
2021/04/29 12:08:33;;;;;;;20.70;14.50;;;15.10;99.90;;;;;;6166301;23;20151;-86
2021/04/29 12:11:04;;;;;;;19.27;14.30;;;15.20;99.90;;;;;;6151019;23;20202;-85
2021/04/29 12:13:36;;;;;;;19.65;14.15;;;15.40;99.90;;;;;;6167948;23;20186;-86
2021/04/29 12:16:44;;;;;;;19.45;14.48;;;15.50;99.90;;;;;;6167155;23;20135;-85
2021/04/29 12:19:36;;;;;;;20.40;15.47;;;15.60;99.90;;;;;;6165014;23;20593;-85
2021/04/29 12:22:30;;;;;;;23.27;14.60;;;15.70;99.90;;;;;;6123520;23;20419;-86
2021/04/29 12:24:55;;;;;;;19.90;14.17;;;15.80;99.90;;;;;;6147389;23;20387;-85
2021/04/29 12:30:28;;;;;;;18.10;12.53;;;15.70;99.90;;;;;;6164630;23;20731;-83
2021/04/29 12:32:54;;;;;;;20.40;13.83;;;15.80;99.90;;;;;;6160471;23;20461;-83
2021/04/29 12:35:35;;;;;;;17.33;13.30;;;15.80;99.90;;;;;;6166257;23;20173;-84
2021/04/29 12:38:01;;;;;;;20.20;14.43;;;15.70;99.90;;;;;;6168951;23;20165;-83
2021/04/29 12:40:37;;;;;;;17.30;12.27;;;15.90;99.90;;;;;;6160324;23;20742;-83
2021/04/29 12:43:18;;;;;;;18.70;12.43;;;16.00;99.90;;;;;;6161405;23;20652;-83
2021/04/29 12:45:53;;;;;;;20.37;14.43;;;16.10;99.90;;;;;;6161301;23;20429;-81
2021/04/29 12:48:34;;;;;;;19.03;14.50;;;16.30;99.90;;;;;;6161506;23;20375;-83
2021/04/29 12:51:01;;;;;;;19.00;13.43;;;16.60;99.90;;;;;;6163379;23;20397;-82
2021/04/29 12:53:27;;;;;;;17.63;13.10;;;16.80;99.90;;;;;;6163178;23;20385;-81
2021/04/29 12:55:52;;;;;;;19.33;13.37;;;16.70;99.90;;;;;;6167277;23;20404;-84
2021/04/29 12:58:39;;;;;;;17.70;13.17;;;16.70;99.90;;;;;;6160317;23;20747;-83
2021/04/29 13:01:12;;;;;;;16.73;12.07;;;16.60;99.90;;;;;;6163268;23;20170;-85
2021/04/29 13:03:42;;;;;;;17.00;12.20;;;16.50;99.90;;;;;;6167136;23;20362;-85
2021/04/29 13:06:11;;;;;;;16.00;11.73;;;16.40;99.90;;;;;;6169138;23;20393;-84
2021/04/29 13:09:07;;;;;;;15.07;11.30;;;16.40;99.90;;;;;;6165910;23;20381;-85
2021/04/29 13:11:42;;;;;;;13.40;10.20;;;16.40;99.90;;;;;;6165779;23;20706;-84
2021/04/29 13:14:18;;;;;;;14.43;10.77;;;16.30;99.90;;;;;;6191083;23;20774;-84
2021/04/29 13:16:46;;;;;;;13.33;9.50;;;16.20;99.90;;;;;;6190895;23;20719;-83
2021/04/29 13:19:33;;;;;;;11.37;9.10;;;16.40;99.90;;;;;;6168241;23;20370;-84
2021/04/29 13:21:58;;;;;;;15.47;10.40;;;16.70;99.90;;;;;;6168879;23;20441;-82
2021/04/29 13:24:24;;;;;;;13.23;10.27;;;16.70;99.90;;;;;;6171359;23;20382;-81
2021/04/29 13:26:55;;;;;;;14.30;9.70;;;16.70;99.90;;;;;;6170169;23;20154;-81
2021/04/29 13:29:21;;;;;;;10.20;9.10;;;16.70;99.90;;;;;;6171708;23;20222;-83
2021/04/29 13:31:46;;;;;;;12.70;10.03;;;16.70;99.90;;;;;;6174388;23;20468;-82
2021/04/29 13:34:12;;;;;;;11.60;8.93;;;16.50;99.90;;;;;;6172962;23;20441;-81
2021/04/29 13:36:39;;;;;;;10.83;9.60;;;16.50;99.90;;;;;;6165051;23;20589;-80
2021/04/29 13:39:08;;;;;;;12.80;10.57;;;16.50;99.90;;;;;;6162852;23;20220;-80
2021/04/29 13:41:34;;;;;;;10.77;8.20;;;16.50;99.90;;;;;;6162819;23;20432;-79
2021/04/29 13:43:59;;;;;;;12.07;9.00;;;16.40;99.90;;;;;;6164700;23;20382;-81
2021/04/29 13:46:25;;;;;;;11.80;8.00;;;16.40;99.90;;;;;;6167188;23;20169;-81
2021/04/29 13:48:50;;;;;;;8.33;6.83;;;16.40;99.90;;;;;;6167013;23;20399;-80
2021/04/29 13:51:17;;;;;;;9.67;7.30;;;16.40;99.90;;;;;;6165551;23;20169;-80
2021/04/29 13:53:43;;;;;;;9.33;7.10;;;16.40;99.90;;;;;;6167027;23;20160;-81
2021/04/29 13:56:09;;;;;;;15.70;7.40;;;16.50;99.90;;;;;;6165735;23;20456;-81
2021/04/29 13:58:35;;;;;;;11.73;7.43;;;16.50;99.90;;;;;;6160493;23;20385;-81
2021/04/29 14:01:00;;;;;;;11.83;7.00;;;16.60;99.90;;;;;;6163901;23;20401;-81
2021/04/29 14:03:28;;;;;;;9.70;8.37;;;16.60;99.90;;;;;;6162305;23;20257;-80
2021/04/29 14:05:54;;;;;;;10.40;7.07;;;16.80;99.90;;;;;;6161956;23;20146;-82